createdAt,value
2018-08-28T00:01:23.991Z,101348.30
2018-08-28T00:03:53.171Z,101347.84
2018-08-28T00:06:21.870Z,101357.41
2018-08-28T00:08:50.539Z,101360.87
2018-08-28T00:11:19.061Z,101362.59
2018-08-28T00:13:47.608Z,101366.93
2018-08-28T00:16:16.215Z,101372.99
2018-08-28T00:18:44.623Z,101374.31
2018-08-28T00:21:13.030Z,101374.28
2018-08-28T00:23:41.737Z,101376.47
2018-08-28T00:26:10.341Z,101372.96
2018-08-28T00:28:38.710Z,101383.84
2018-08-28T00:31:07.110Z,101377.75
2018-08-28T00:33:35.522Z,101386.89
2018-08-28T00:36:03.924Z,101385.55
2018-08-28T00:38:32.305Z,101388.19
2018-08-28T00:41:00.924Z,101387.77
2018-08-28T00:43:29.332Z,101385.14
2018-08-28T00:45:57.761Z,101389.52
2018-08-28T00:48:26.139Z,101394.30
2018-08-28T00:50:54.519Z,101404.34
2018-08-28T00:53:22.942Z,101402.13
2018-08-28T00:55:51.366Z,101397.79
2018-08-28T00:58:19.773Z,101408.23
2018-08-28T01:00:48.155Z,101409.11
2018-08-28T01:03:16.555Z,101409.95
2018-08-28T01:05:44.931Z,101409.08
2018-08-28T01:08:13.343Z,101414.74
2018-08-28T01:10:41.723Z,101414.28
2018-08-28T01:13:10.137Z,101419.94
2018-08-28T01:15:38.623Z,101421.69
2018-08-28T01:18:07.444Z,101422.12
2018-08-28T01:20:35.836Z,101418.20
2018-08-28T01:23:04.284Z,101422.96
2018-08-28T01:25:32.667Z,101426.01
2018-08-28T01:28:01.068Z,101424.27
2018-08-28T01:30:34.543Z,101423.41
2018-08-28T01:33:04.878Z,101426.42
2018-08-28T01:35:33.272Z,101429.87
2018-08-28T01:38:01.672Z,101432.92
2018-08-28T01:40:30.411Z,101433.80
2018-08-28T01:42:59.726Z,101437.69
2018-08-28T01:45:28.126Z,101435.89
2018-08-28T01:47:56.515Z,101433.28
2018-08-28T01:50:24.929Z,101439.81
2018-08-28T01:52:53.314Z,101434.97
2018-08-28T01:55:21.684Z,101434.08
2018-08-28T01:57:50.075Z,101439.73
2018-08-28T02:00:18.444Z,101441.02
2018-08-28T02:02:46.834Z,101438.81
2018-08-28T02:05:15.210Z,101444.91
2018-08-28T02:07:43.607Z,101440.06
2018-08-28T02:10:11.966Z,101446.59
2018-08-28T02:12:40.363Z,101450.05
2018-08-28T02:15:08.726Z,101450.45
2018-08-28T02:17:37.114Z,101451.76
2018-08-28T02:20:05.524Z,101452.59
2018-08-28T02:22:33.914Z,101458.66
2018-08-28T02:25:02.282Z,101456.45
2018-08-28T02:27:30.670Z,101455.13
2018-08-28T02:29:59.042Z,101456.86
2018-08-28T02:32:27.435Z,101456.84
2018-08-28T02:34:55.978Z,101456.80
2018-08-28T02:37:24.366Z,101459.84
2018-08-28T02:39:52.942Z,101459.82
2018-08-28T02:42:21.335Z,101459.80
2018-08-28T02:44:49.722Z,101468.48
2018-08-28T02:47:18.140Z,101465.84
2018-08-28T02:49:46.515Z,101468.02
2018-08-28T02:52:14.913Z,101460.60
2018-08-28T02:54:43.287Z,101469.30
2018-08-28T02:57:11.655Z,101471.91
2018-08-28T02:59:40.042Z,101467.09
2018-08-28T03:02:08.412Z,101472.75
2018-08-28T03:04:36.806Z,101476.22
2018-08-28T03:07:05.174Z,101480.10
2018-08-28T03:09:33.577Z,101484.45
2018-08-28T03:12:01.950Z,101481.84
2018-08-28T03:14:30.364Z,101480.54
2018-08-28T03:16:58.730Z,101487.93
2018-08-28T03:19:27.142Z,101488.36
2018-08-28T03:21:55.522Z,101486.16
2018-08-28T03:24:23.910Z,101488.77
2018-08-28T03:26:52.287Z,101493.95
2018-08-28T03:29:20.690Z,101499.60
2018-08-28T03:31:49.082Z,101504.82
2018-08-28T03:34:17.654Z,101497.83
2018-08-28T03:36:46.023Z,101504.82
2018-08-28T03:39:14.443Z,101506.96
2018-08-28T03:41:42.815Z,101512.61
2018-08-28T03:44:11.211Z,101508.23
2018-08-28T03:46:39.591Z,101510.41
2018-08-28T03:49:07.979Z,101514.31
2018-08-28T03:51:36.379Z,101511.67
2018-08-28T03:54:04.766Z,101518.63
2018-08-28T03:56:33.143Z,101524.72
2018-08-28T03:59:01.539Z,101524.72
2018-08-28T04:01:29.911Z,101524.28
2018-08-28T04:03:58.310Z,101528.66
2018-08-28T04:06:26.686Z,101526.92
2018-08-28T04:08:55.079Z,101535.66
2018-08-28T04:11:23.474Z,101536.99
2018-08-28T04:13:51.865Z,101540.94
2018-08-28T04:16:20.235Z,101542.71
2018-08-28T04:18:48.657Z,101547.56
2018-08-28T04:21:17.062Z,101549.34
2018-08-28T04:23:45.459Z,101546.76
2018-08-28T04:26:13.842Z,101559.44
2018-08-28T04:28:42.242Z,101559.94
2018-08-28T04:31:10.739Z,101559.13
2018-08-28T04:33:39.134Z,101557.89
2018-08-28T04:36:07.506Z,101566.22
2018-08-28T04:38:35.898Z,101564.14
2018-08-28T04:41:04.270Z,101568.98
2018-08-28T04:43:32.659Z,101576.03
2018-08-28T04:46:01.037Z,101571.31
2018-08-28T04:48:29.456Z,101572.67
2018-08-28T04:50:57.834Z,101579.27
2018-08-28T04:53:26.255Z,101579.73
2018-08-28T04:55:54.622Z,101578.04
2018-08-28T04:58:22.994Z,101580.67
2018-08-28T05:00:51.435Z,101578.12
2018-08-28T05:03:19.790Z,101585.98
2018-08-28T05:05:48.189Z,101587.75
2018-08-28T05:08:16.550Z,101593.44
2018-08-28T05:10:44.942Z,101593.90
2018-08-28T05:13:13.331Z,101601.36
2018-08-28T05:15:41.726Z,101595.28
2018-08-28T05:18:10.118Z,101598.83
2018-08-28T05:20:38.514Z,101601.46
2018-08-28T05:23:06.888Z,101594.52
2018-08-28T05:25:35.282Z,101594.98
2018-08-28T05:28:03.667Z,101595.87
2018-08-28T05:30:32.111Z,101594.19
2018-08-28T05:33:00.478Z,101602.05
2018-08-28T05:35:28.875Z,101606.02
2018-08-28T05:37:57.300Z,101607.77
2018-08-28T05:40:25.791Z,101612.20
2018-08-28T05:42:54.176Z,101613.13
2018-08-28T05:45:22.583Z,101615.34
2018-08-28T05:47:50.950Z,101617.13
2018-08-28T05:50:19.347Z,101610.18
2018-08-28T05:52:47.728Z,101612.38
2018-08-28T05:55:16.127Z,101611.08
2018-08-28T05:57:44.511Z,101613.75
2018-08-28T06:00:12.918Z,101617.69
2018-08-28T06:02:41.287Z,101614.20
2018-08-28T06:05:10.017Z,101615.14
2018-08-28T06:07:38.382Z,101612.11
2018-08-28T06:10:06.795Z,101619.55
2018-08-28T06:12:35.315Z,101615.65
2018-08-28T06:15:03.734Z,101619.17
2018-08-28T06:17:32.107Z,101620.54
2018-08-28T06:20:00.527Z,101615.34
2018-08-28T06:22:28.899Z,101614.50
2018-08-28T06:24:58.051Z,101627.19
2018-08-28T06:27:26.615Z,101628.53
2018-08-28T06:29:55.010Z,101633.81
2018-08-28T06:32:23.395Z,101631.22
2018-08-28T06:34:51.791Z,101636.48
2018-08-28T06:37:20.440Z,101640.44
2018-08-28T06:39:48.766Z,101642.64
2018-08-28T06:42:17.142Z,101647.92
2018-08-28T06:44:45.544Z,101654.09
2018-08-28T06:47:13.919Z,101646.69
2018-08-28T06:49:42.380Z,101646.70
2018-08-28T06:52:10.706Z,101650.69
2018-08-28T06:54:39.139Z,101658.58
2018-08-28T06:57:07.526Z,101650.75
2018-08-28T06:59:35.899Z,101650.33
2018-08-28T07:02:04.303Z,101654.70
2018-08-28T07:04:32.799Z,101655.18
2018-08-28T07:07:01.194Z,101649.94
2018-08-28T07:09:29.675Z,101658.23
2018-08-28T07:11:58.075Z,101653.02
2018-08-28T07:14:26.455Z,101656.97
2018-08-28T07:16:54.838Z,101665.70
2018-08-28T07:19:23.512Z,101669.64
2018-08-28T07:21:51.908Z,101670.53
2018-08-28T07:24:20.279Z,101677.52
2018-08-28T07:26:48.678Z,101681.49
2018-08-28T07:29:17.053Z,101692.89
2018-08-28T07:31:45.561Z,101691.58
2018-08-28T07:34:13.862Z,101695.50
2018-08-28T07:36:42.262Z,101702.51
2018-08-28T07:39:10.634Z,101703.39
2018-08-28T07:41:39.044Z,101705.55
2018-08-28T07:44:07.426Z,101713.00
2018-08-28T07:46:35.823Z,101708.60
2018-08-28T07:49:04.191Z,101710.34
2018-08-28T07:51:32.604Z,101715.59
2018-08-28T07:54:01.008Z,101721.26
2018-08-28T07:56:29.398Z,101712.91
2018-08-28T07:58:57.770Z,101715.51
2018-08-28T08:01:26.228Z,101718.58
2018-08-28T08:03:54.572Z,101718.13
2018-08-28T08:06:22.976Z,101718.55
2018-08-28T08:08:51.348Z,101725.53
2018-08-28T08:11:19.746Z,101720.66
2018-08-28T08:13:48.119Z,101731.99
2018-08-28T08:16:16.717Z,101726.27
2018-08-28T08:18:45.064Z,101727.97
2018-08-28T08:21:13.481Z,101735.78
2018-08-28T08:23:41.847Z,101733.52
2018-08-28T08:26:10.249Z,101733.50
2018-08-28T08:28:38.623Z,101737.42
2018-08-28T08:31:07.259Z,101739.16
2018-08-28T08:33:35.635Z,101740.51
2018-08-28T08:36:04.034Z,101747.09
2018-08-28T08:38:32.406Z,101741.83
2018-08-28T08:41:00.802Z,101743.08
2018-08-28T08:43:29.178Z,101744.34
2018-08-28T08:45:57.570Z,101740.33
2018-08-28T08:48:25.947Z,101747.72
2018-08-28T08:50:54.355Z,101742.90
2018-08-28T08:53:22.723Z,101746.34
2018-08-28T08:55:51.207Z,101744.98
2018-08-28T08:58:19.622Z,101742.24
2018-08-28T09:00:47.990Z,101743.94
2018-08-28T09:03:16.387Z,101743.45
2018-08-28T09:05:44.754Z,101746.45
2018-08-28T09:08:13.146Z,101745.55
2018-08-28T09:10:41.542Z,101749.95
2018-08-28T09:13:09.965Z,101753.05
2018-08-28T09:15:38.338Z,101753.88
2018-08-28T09:18:06.795Z,101758.73
2018-08-28T09:20:35.158Z,101760.00
2018-08-28T09:23:03.551Z,101756.45
2018-08-28T09:25:31.925Z,101767.83
2018-08-28T09:28:00.314Z,101768.57
2018-08-28T09:30:28.702Z,101768.48
2018-08-28T09:32:57.102Z,101767.11
2018-08-28T09:35:25.479Z,101769.66
2018-08-28T09:37:53.868Z,101768.30
2018-08-28T09:40:22.235Z,101780.53
2018-08-28T09:42:50.631Z,101771.65
2018-08-28T09:45:19.003Z,101779.52
2018-08-28T09:47:47.406Z,101780.33
2018-08-28T09:50:15.867Z,101771.03
2018-08-28T09:52:44.218Z,101778.50
2018-08-28T09:55:12.614Z,101779.82
2018-08-28T09:57:41.097Z,101777.54
2018-08-28T10:00:14.103Z,101776.20
2018-08-28T10:02:42.924Z,101779.30
2018-08-28T10:05:11.303Z,101788.09
2018-08-28T10:07:39.699Z,101789.02
2018-08-28T10:10:08.107Z,101790.78
2018-08-28T10:12:36.507Z,101788.50
2018-08-28T10:15:04.896Z,101786.27
2018-08-28T10:17:33.368Z,101792.84
2018-08-28T10:20:01.715Z,101794.92
2018-08-28T10:22:30.104Z,101794.91
2018-08-28T10:24:58.606Z,101802.38
2018-08-28T10:27:27.014Z,101804.97
2018-08-28T10:29:55.880Z,101805.43
2018-08-28T10:32:24.191Z,101803.19
2018-08-28T10:34:52.567Z,101804.96
2018-08-28T10:37:20.962Z,101802.79
2018-08-28T10:39:49.350Z,101805.92
2018-08-28T10:42:17.747Z,101800.66
2018-08-28T10:44:46.123Z,101802.53
2018-08-28T10:47:14.518Z,101808.69
2018-08-28T10:49:43.122Z,101807.36
2018-08-28T10:52:11.548Z,101799.90
2018-08-28T10:54:39.967Z,101806.39
2018-08-28T10:57:08.335Z,101802.33
2018-08-28T10:59:36.731Z,101795.62
2018-08-28T11:02:05.107Z,101797.68
2018-08-28T11:04:33.564Z,101805.02
2018-08-28T11:07:01.906Z,101807.95
2018-08-28T11:09:30.304Z,101805.11
2018-08-28T11:11:58.725Z,101810.64
2018-08-28T11:14:27.106Z,101807.80
2018-08-28T11:16:55.479Z,101807.19
2018-08-28T11:19:24.116Z,101811.41
2018-08-28T11:21:52.504Z,101815.23
2018-08-28T11:24:20.915Z,101811.91
2018-08-28T11:26:49.296Z,101822.27
2018-08-28T11:29:17.702Z,101819.08
2018-08-28T11:31:46.066Z,101833.09
2018-08-28T11:34:14.458Z,101831.31
2018-08-28T11:36:42.819Z,101839.19
2018-08-28T11:39:11.211Z,101840.00
2018-08-28T11:41:39.607Z,101837.02
2018-08-28T11:44:08.012Z,101835.76
2018-08-28T11:46:36.386Z,101839.81
2018-08-28T11:49:04.782Z,101842.05
2018-08-28T11:51:33.154Z,101841.58
2018-08-28T11:54:01.926Z,101844.14
2018-08-28T11:56:30.515Z,101840.12
2018-08-28T11:58:58.909Z,101844.89
2018-08-28T12:01:27.287Z,101853.20
2018-08-28T12:03:55.746Z,101847.86
2018-08-28T12:06:24.175Z,101847.45
2018-08-28T12:08:52.588Z,101854.16
2018-08-28T12:11:20.974Z,101851.63
2018-08-28T12:13:49.370Z,101856.19
2018-08-28T12:16:17.803Z,101852.32
2018-08-28T12:18:46.219Z,101851.86
2018-08-28T12:21:14.592Z,101853.63
2018-08-28T12:23:42.983Z,101847.47
2018-08-28T12:26:11.359Z,101851.00
2018-08-28T12:28:39.750Z,101847.03
2018-08-28T12:31:08.112Z,101845.25
2018-08-28T12:33:36.503Z,101846.16
2018-08-28T12:36:04.898Z,101840.80
2018-08-28T12:38:33.288Z,101834.11
2018-08-28T12:41:01.654Z,101831.77
2018-08-28T12:43:30.093Z,101834.76
2018-08-28T12:45:58.464Z,101835.53
2018-08-28T12:48:26.861Z,101835.02
2018-08-28T12:50:55.234Z,101831.34
2018-08-28T12:53:23.650Z,101833.44
2018-08-28T12:55:52.018Z,101844.03
2018-08-28T12:58:20.385Z,101836.09
2018-08-28T13:00:48.885Z,101837.88
2018-08-28T13:03:17.170Z,101843.15
2018-08-28T13:05:45.566Z,101842.70
2018-08-28T13:08:13.930Z,101840.52
2018-08-28T13:10:42.330Z,101838.33
2018-08-28T13:13:10.690Z,101840.98
2018-08-28T13:15:39.083Z,101837.94
2018-08-28T13:18:07.731Z,101843.26
2018-08-28T13:20:36.130Z,101843.15
2018-08-28T13:23:04.538Z,101838.67
2018-08-28T13:25:32.954Z,101839.02
2018-08-28T13:28:01.327Z,101840.99
2018-08-28T13:30:29.723Z,101841.28
2018-08-28T13:32:58.163Z,101846.03
2018-08-28T13:35:26.559Z,101844.97
2018-08-28T13:37:54.942Z,101843.89
2018-08-28T13:40:23.377Z,101841.45
2018-08-28T13:42:51.743Z,101839.38
2018-08-28T13:45:20.130Z,101844.48
2018-08-28T13:47:48.508Z,101846.02
2018-08-28T13:50:16.898Z,101839.66
2018-08-28T13:52:45.271Z,101843.51
2018-08-28T13:55:13.668Z,101844.83
2018-08-28T13:57:42.046Z,101840.80
2018-08-28T14:00:10.534Z,101840.34
2018-08-28T14:02:38.926Z,101840.77
2018-08-28T14:05:07.314Z,101843.74
2018-08-28T14:07:35.682Z,101840.60
2018-08-28T14:10:04.114Z,101841.98
2018-08-28T14:12:32.489Z,101845.05
2018-08-28T14:15:00.889Z,101845.07
2018-08-28T14:17:29.328Z,101846.48
2018-08-28T14:19:57.754Z,101841.28
2018-08-28T14:22:26.133Z,101836.92
2018-08-28T14:24:54.546Z,101839.17
2018-08-28T14:27:22.919Z,101840.53
2018-08-28T14:29:51.320Z,101834.84
2018-08-28T14:32:19.705Z,101843.80
2018-08-28T14:34:48.095Z,101836.42
2018-08-28T14:37:16.463Z,101836.52
2018-08-28T14:39:44.851Z,101837.88
2018-08-28T14:42:13.222Z,101830.41
2018-08-28T14:44:41.615Z,101834.38
2018-08-28T14:47:09.994Z,101830.84
2018-08-28T14:49:38.442Z,101830.36
2018-08-28T14:52:06.891Z,101837.28
2018-08-28T14:54:35.262Z,101838.55
2018-08-28T14:57:03.655Z,101831.98
2018-08-28T14:59:32.050Z,101839.09
2018-08-28T15:02:00.438Z,101835.12
2018-08-28T15:04:28.830Z,101840.88
2018-08-28T15:06:57.318Z,101840.52
2018-08-28T15:09:25.623Z,101840.58
2018-08-28T15:11:54.019Z,101841.09
2018-08-28T15:14:22.394Z,101843.80
2018-08-28T15:16:50.881Z,101836.81
2018-08-28T15:19:19.220Z,101837.75
2018-08-28T15:21:47.611Z,101836.07
2018-08-28T15:24:15.983Z,101838.39
2018-08-28T15:26:44.379Z,101841.09
2018-08-28T15:29:12.747Z,101835.94
2018-08-28T15:31:41.137Z,101833.89
2018-08-28T15:34:09.740Z,101838.45
2018-08-28T15:36:38.134Z,101833.24
2018-08-28T15:39:07.294Z,101837.70
2018-08-28T15:41:35.686Z,101834.26
2018-08-28T15:44:04.058Z,101839.09
2018-08-28T15:46:32.458Z,101844.85
2018-08-28T15:49:00.958Z,101843.53
2018-08-28T15:51:29.546Z,101845.33
2018-08-28T15:53:57.762Z,101840.05
2018-08-28T15:56:26.158Z,101842.75
2018-08-28T15:58:54.642Z,101838.39
2018-08-28T16:01:23.451Z,101839.28
2018-08-28T16:03:51.820Z,101837.16
2018-08-28T16:06:20.210Z,101840.29
2018-08-28T16:08:48.590Z,101837.71
2018-08-28T16:11:16.999Z,101835.59
2018-08-28T16:13:45.375Z,101835.68
2018-08-28T16:16:13.794Z,101842.34
2018-08-28T16:18:42.181Z,101837.11
2018-08-28T16:21:10.566Z,101840.28
2018-08-28T16:23:42.417Z,101834.63
2018-08-28T16:26:10.766Z,101834.28
2018-08-28T16:28:39.130Z,101837.02
2018-08-28T16:31:07.522Z,101836.20
2018-08-28T16:33:35.897Z,101839.80
2018-08-28T16:36:04.291Z,101843.83
2018-08-28T16:38:32.662Z,101842.60
2018-08-28T16:41:01.171Z,101837.37
2018-08-28T16:43:29.454Z,101835.70
2018-08-28T16:45:57.843Z,101835.34
2018-08-28T16:48:26.321Z,101838.11
2018-08-28T16:50:54.622Z,101835.14
2018-08-28T16:53:22.990Z,101839.64
2018-08-28T16:55:51.448Z,101839.25
2018-08-28T16:58:19.803Z,101836.23
2018-08-28T17:00:48.167Z,101837.61
2018-08-28T17:03:16.623Z,101836.34
2018-08-28T17:05:44.991Z,101835.49
2018-08-28T17:08:13.386Z,101833.78
2018-08-28T17:10:41.758Z,101835.21
2018-08-28T17:13:10.202Z,101834.38
2018-08-28T17:15:38.574Z,101836.20
2018-08-28T17:18:07.074Z,101838.41
2018-08-28T17:20:35.500Z,101842.39
2018-08-28T17:23:04.032Z,101839.34
2018-08-28T17:25:32.452Z,101843.78
2018-08-28T17:28:00.846Z,101838.95
2018-08-28T17:30:29.214Z,101842.10
2018-08-28T17:32:57.606Z,101843.02
2018-08-28T17:35:25.975Z,101844.81
2018-08-28T17:37:54.401Z,101850.15
2018-08-28T17:40:22.766Z,101850.61
2018-08-28T17:42:51.163Z,101854.19
2018-08-28T17:45:19.540Z,101858.61
2018-08-28T17:47:47.930Z,101860.84
2018-08-28T17:50:16.304Z,101852.92
2018-08-28T17:52:44.698Z,101855.61
2018-08-28T17:55:13.067Z,101865.73
2018-08-28T17:57:41.466Z,101867.09
2018-08-28T18:00:09.886Z,101865.79
2018-08-28T18:02:38.274Z,101871.57
2018-08-28T18:05:06.663Z,101875.54
2018-08-28T18:07:35.078Z,101874.27
2018-08-28T18:10:03.455Z,101870.36
2018-08-28T18:12:31.854Z,101877.42
2018-08-28T18:15:00.237Z,101874.37
2018-08-28T18:17:28.622Z,101880.99
2018-08-28T18:19:57.024Z,101876.63
2018-08-28T18:22:25.446Z,101878.86
2018-08-28T18:24:53.824Z,101877.13
2018-08-28T18:27:22.210Z,101880.27
2018-08-28T18:29:50.587Z,101884.28
2018-08-28T18:32:18.987Z,101880.37
2018-08-28T18:34:47.351Z,101881.28
2018-08-28T18:37:15.738Z,101884.84
2018-08-28T18:39:44.110Z,101883.07
2018-08-28T18:42:12.662Z,101884.84
2018-08-28T18:44:41.030Z,101892.36
2018-08-28T18:47:09.419Z,101885.34
2018-08-28T18:49:37.782Z,101892.41
2018-08-28T18:52:06.199Z,101897.27
2018-08-28T18:54:34.574Z,101892.45
2018-08-28T18:57:02.949Z,101893.77
2018-08-28T18:59:31.378Z,101894.26
2018-08-28T19:01:59.751Z,101890.75
2018-08-28T19:04:28.151Z,101892.49
2018-08-28T19:06:56.510Z,101891.21
2018-08-28T19:09:24.936Z,101892.53
2018-08-28T19:11:53.318Z,101897.39
2018-08-28T19:14:21.715Z,101898.72
2018-08-28T19:16:50.080Z,101900.94
2018-08-28T19:19:18.490Z,101899.62
2018-08-28T19:21:46.850Z,101899.62
2018-08-28T19:24:15.270Z,101897.44
2018-08-28T19:26:43.667Z,101894.84
2018-08-28T19:29:12.046Z,101893.08
2018-08-28T19:31:40.471Z,101896.61
2018-08-28T19:34:08.830Z,101897.07
2018-08-28T19:36:37.191Z,101890.06
2018-08-28T19:39:06.015Z,101893.61
2018-08-28T19:41:34.378Z,101892.33
2018-08-28T19:44:02.786Z,101892.81
2018-08-28T19:46:31.167Z,101896.36
2018-08-28T19:48:59.554Z,101895.08
2018-08-28T19:51:28.034Z,101892.89
2018-08-28T19:53:56.431Z,101894.66
2018-08-28T19:56:25.067Z,101896.88
2018-08-28T19:58:53.486Z,101892.09
2018-08-28T20:01:21.954Z,101894.77
2018-08-28T20:03:50.357Z,101877.28
2018-08-28T20:06:18.738Z,101887.80
2018-08-28T20:08:47.118Z,101892.20
2018-08-28T20:11:15.512Z,101885.64
2018-08-28T20:13:43.918Z,101886.55
2018-08-28T20:16:12.300Z,101889.59
2018-08-28T20:18:40.722Z,101888.28
2018-08-28T20:21:09.095Z,101884.80
2018-08-28T20:23:37.502Z,101885.67
2018-08-28T20:26:05.894Z,101881.30
2018-08-28T20:28:34.295Z,101888.34
2018-08-28T20:31:02.811Z,101890.11
2018-08-28T20:33:31.207Z,101891.91
2018-08-28T20:35:59.586Z,101890.62
2018-08-28T20:38:27.982Z,101885.83
2018-08-28T20:40:56.358Z,101890.67
2018-08-28T20:43:24.746Z,101888.94
2018-08-28T20:45:53.110Z,101892.02
2018-08-28T20:48:21.515Z,101892.88
2018-08-28T20:50:49.882Z,101892.46
2018-08-28T20:53:18.302Z,101892.49
2018-08-28T20:55:46.674Z,101889.88
2018-08-28T20:58:15.060Z,101887.72
2018-08-28T21:00:43.450Z,101882.03
2018-08-28T21:03:11.814Z,101880.73
2018-08-28T21:05:40.203Z,101889.53
2018-08-28T21:08:10.259Z,101888.69
2018-08-28T21:10:38.646Z,101882.09
2018-08-28T21:13:07.053Z,101881.25
2018-08-28T21:15:35.439Z,101879.94
2018-08-28T21:18:03.830Z,101883.02
2018-08-28T21:20:32.227Z,101883.91
2018-08-28T21:23:00.661Z,101886.96
2018-08-28T21:25:29.018Z,101881.72
2018-08-28T21:27:57.390Z,101879.53
2018-08-28T21:30:25.795Z,101878.66
2018-08-28T21:32:54.254Z,101876.94
2018-08-28T21:35:22.649Z,101880.02
2018-08-28T21:37:51.023Z,101883.98
2018-08-28T21:40:19.414Z,101877.39
2018-08-28T21:42:47.782Z,101876.07
2018-08-28T21:45:16.171Z,101880.91
2018-08-28T21:47:44.544Z,101875.66
2018-08-28T21:50:12.935Z,101885.78
2018-08-28T21:52:41.310Z,101875.70
2018-08-28T21:55:09.706Z,101883.22
2018-08-28T21:57:38.119Z,101884.52
2018-08-28T22:00:06.851Z,101884.53
2018-08-28T22:02:35.227Z,101884.97
2018-08-28T22:05:03.628Z,101883.66
2018-08-28T22:07:37.322Z,101886.73
2018-08-28T22:10:05.739Z,101887.18
2018-08-28T22:12:34.251Z,101886.30
2018-08-28T22:15:02.643Z,101885.45
2018-08-28T22:17:31.198Z,101891.59
2018-08-28T22:19:59.826Z,101885.88
2018-08-28T22:22:28.209Z,101880.64
2018-08-28T22:24:56.608Z,101885.89
2018-08-28T22:27:24.977Z,101888.10
2018-08-28T22:29:53.362Z,101889.85
2018-08-28T22:32:21.725Z,101889.41
2018-08-28T22:34:50.118Z,101884.14
2018-08-28T22:37:18.485Z,101888.11
2018-08-28T22:39:46.877Z,101883.28
2018-08-28T22:42:15.246Z,101888.11
2018-08-28T22:44:43.649Z,101891.63
2018-08-28T22:47:12.034Z,101889.43
2018-08-28T22:49:40.422Z,101888.57
2018-08-28T22:52:08.794Z,101889.43
2018-08-28T22:54:37.214Z,101888.12
2018-08-28T22:57:05.666Z,101888.14
2018-08-28T22:59:34.038Z,101884.22
2018-08-28T23:02:02.426Z,101885.94
2018-08-28T23:04:30.802Z,101884.59
2018-08-28T23:06:59.193Z,101879.80
2018-08-28T23:09:27.565Z,101885.92
2018-08-28T23:11:55.953Z,101878.05
2018-08-28T23:14:24.333Z,101879.78
2018-08-28T23:16:52.726Z,101878.91
2018-08-28T23:19:21.114Z,101884.16
2018-08-28T23:21:49.606Z,101881.08
2018-08-28T23:24:17.974Z,101882.38
2018-08-28T23:26:46.366Z,101881.92
2018-08-28T23:29:14.738Z,101885.40
2018-08-28T23:31:43.126Z,101879.70
2018-08-28T23:34:11.495Z,101874.88
2018-08-28T23:36:39.898Z,101877.87
2018-08-28T23:39:08.642Z,101879.16
2018-08-28T23:41:37.061Z,101876.51
2018-08-28T23:44:05.490Z,101878.68
2018-08-28T23:46:34.013Z,101877.34
2018-08-28T23:49:02.393Z,101874.27
2018-08-28T23:51:30.781Z,101877.30
2018-08-28T23:53:59.329Z,101873.34
2018-08-28T23:56:27.750Z,101875.09
2018-08-28T23:58:56.122Z,101877.69
